VDPP/PNH METAR and TAF weather

Enter ICAO airport designator
Station Type Date Time Source
VDPP METAR 2021/10/24 20:30 UTC NOAA

VDPP 242030Z VRB03KT 9000 SCT015 26/25 Q1009


Station Type Date Time Source
VDPP Decoded METAR 2021/10/24 20:30 UTC NOAA

Phnom-Penh / Pochentong, Cambodia (VDPP) 11-33N 104-51E 10M
Oct 24, 2021 - 04:30 PM EDT / 2021.10.24 2030 UTC
Wind: Variable at 3 MPH (3 KT):0
Visibility: 5 mile(s):0
Sky conditions: partly cloudy
Temperature: 78 F (26 C)
Dew Point: 77 F (25 C)
Relative Humidity: 94%
Pressure (altimeter): 29.80 in. Hg (1009 hPa)
ob: VDPP 242030Z VRB03KT 9000 SCT015 26/25 Q1009
cycle: 20

Station Type Date Time Source
VDPP TAF 2021/10/24 18:00 UTC NOAA

TAF VDPP 241700Z 2418/2512 01007KT 9999 SCT017

Example: see airport list